createdAt,value
2023-01-19T00:01:37.305Z,100111.16
2023-01-19T00:04:04.803Z,100056.88
2023-01-19T00:06:32.130Z,100122.88
2023-01-19T00:09:01.648Z,100128.88
2023-01-19T00:11:29.419Z,100090.22
2023-01-19T00:13:56.331Z,100093.53
2023-01-19T00:16:23.548Z,100078.97
2023-01-19T00:18:52.400Z,100072.88
2023-01-19T00:21:19.642Z,100133.81
2023-01-19T00:23:51.380Z,100057.75
2023-01-19T00:26:21.489Z,100063.56
2023-01-19T00:28:49.956Z,100133.03
2023-01-19T00:31:17.070Z,100118.09
2023-01-19T00:33:43.864Z,100111.81
2023-01-19T00:36:10.710Z,100096.13
2023-01-19T00:38:39.185Z,100131.44
2023-01-19T00:41:08.434Z,100127.34
2023-01-19T00:43:35.558Z,100077.28
2023-01-19T00:46:03.483Z,100140.38
2023-01-19T00:48:31.182Z,100063.19
2023-01-19T00:50:58.432Z,100057.25
2023-01-19T00:53:25.693Z,100050.91
2023-01-19T00:55:52.714Z,100130.13
2023-01-19T00:58:19.718Z,100068.00
2023-01-19T01:00:46.994Z,100072.53
2023-01-19T01:03:14.422Z,100128.75
2023-01-19T01:05:42.835Z,100151.16
2023-01-19T01:08:12.859Z,100080.56
2023-01-19T01:10:40.031Z,100078.22
2023-01-19T01:13:21.316Z,100130.03
2023-01-19T01:15:54.082Z,100117.09
2023-01-19T01:18:22.299Z,100073.78
2023-01-19T01:20:49.380Z,100076.16
2023-01-19T01:23:17.247Z,100063.22
2023-01-19T01:25:44.412Z,100102.94
2023-01-19T01:28:11.417Z,100072.63
2023-01-19T01:30:41.667Z,100081.19
2023-01-19T01:33:09.025Z,100146.50
2023-01-19T01:35:36.220Z,100085.63
2023-01-19T01:38:03.919Z,100109.97
2023-01-19T01:40:33.212Z,100126.19
2023-01-19T01:43:03.071Z,100105.84
2023-01-19T01:45:32.453Z,100120.81
2023-01-19T01:48:28.679Z,100147.91
2023-01-19T01:51:19.710Z,100180.56
2023-01-19T01:53:52.753Z,100190.88
2023-01-19T01:56:31.313Z,100144.44
2023-01-19T01:58:59.471Z,100161.25
2023-01-19T02:01:45.029Z,100194.44
2023-01-19T02:04:13.010Z,100156.31
2023-01-19T02:06:58.420Z,100113.81
2023-01-19T02:09:48.343Z,100146.69
2023-01-19T02:12:34.578Z,100201.28
2023-01-19T02:15:01.628Z,100191.97
2023-01-19T02:17:28.790Z,100207.84
2023-01-19T02:19:55.979Z,100216.66
2023-01-19T02:22:36.170Z,100180.00
2023-01-19T02:25:05.009Z,100215.75
2023-01-19T02:27:33.422Z,100221.19
2023-01-19T02:30:03.993Z,100179.34
2023-01-19T02:32:30.987Z,100181.19
2023-01-19T02:35:01.650Z,100217.91
2023-01-19T02:37:37.729Z,100180.56
2023-01-19T02:40:09.049Z,100132.88
2023-01-19T02:42:44.772Z,100151.75
2023-01-19T02:45:16.073Z,100160.88
2023-01-19T02:47:53.330Z,100182.66
2023-01-19T02:50:46.539Z,100244.41
2023-01-19T02:53:32.082Z,100240.38
2023-01-19T02:56:21.019Z,100239.72
2023-01-19T02:59:05.889Z,100194.00
2023-01-19T03:02:04.311Z,100220.38
2023-01-19T03:05:05.039Z,100242.00
2023-01-19T03:08:04.289Z,100212.25
2023-01-19T03:10:48.565Z,100249.00
2023-01-19T03:13:22.265Z,100192.09
2023-01-19T03:16:02.647Z,100176.38
2023-01-19T03:18:34.080Z,100166.34
2023-01-19T03:21:06.267Z,100157.69
2023-01-19T03:23:36.803Z,100208.59
2023-01-19T03:26:09.022Z,100163.06
2023-01-19T03:28:40.726Z,100200.56
2023-01-19T03:31:16.161Z,100206.31
2023-01-19T03:33:52.025Z,100196.75
2023-01-19T03:36:42.795Z,100225.97
2023-01-19T03:39:12.010Z,100171.41
2023-01-19T03:41:41.430Z,100190.88
2023-01-19T03:44:09.686Z,100216.13
2023-01-19T03:46:37.266Z,100200.22
2023-01-19T03:49:05.543Z,100233.47
2023-01-19T03:51:36.564Z,100280.47
2023-01-19T03:54:06.369Z,100205.19
2023-01-19T03:56:34.584Z,100234.97
2023-01-19T03:59:01.690Z,100261.81
2023-01-19T04:01:29.169Z,100267.97
2023-01-19T04:03:56.853Z,100239.25
2023-01-19T04:06:24.223Z,100264.84
2023-01-19T04:08:52.166Z,100254.03
2023-01-19T04:11:19.404Z,100270.94
2023-01-19T04:13:46.218Z,100234.47
2023-01-19T04:16:14.709Z,100241.53
2023-01-19T04:18:42.669Z,100317.03
2023-01-19T04:21:11.029Z,100226.97
2023-01-19T04:23:38.261Z,100323.75
2023-01-19T04:26:07.276Z,100268.31
2023-01-19T04:28:35.053Z,100277.25
2023-01-19T04:31:02.290Z,100264.94
2023-01-19T04:33:29.478Z,100251.72
2023-01-19T04:35:59.388Z,100286.38
2023-01-19T04:38:26.669Z,100285.94
2023-01-19T04:40:55.055Z,100258.78
2023-01-19T04:43:24.073Z,100242.41
2023-01-19T04:45:51.533Z,100323.41
2023-01-19T04:48:19.082Z,100283.69
2023-01-19T04:50:47.586Z,100349.81
2023-01-19T04:53:16.373Z,100312.72
2023-01-19T04:55:43.073Z,100291.97
2023-01-19T04:58:10.361Z,100310.38
2023-01-19T05:00:40.470Z,100352.59
2023-01-19T05:03:07.601Z,100360.00
2023-01-19T05:05:34.794Z,100260.44
2023-01-19T05:08:02.121Z,100351.28
2023-01-19T05:10:30.532Z,100310.94
2023-01-19T05:12:58.117Z,100324.66
2023-01-19T05:15:25.451Z,100282.69
2023-01-19T05:17:53.114Z,100337.84
2023-01-19T05:20:20.014Z,100291.38
2023-01-19T05:22:50.989Z,100299.53
2023-01-19T05:25:19.024Z,100331.75
2023-01-19T05:27:47.268Z,100295.00
2023-01-19T05:30:15.344Z,100388.41
2023-01-19T05:32:42.957Z,100373.13
2023-01-19T05:35:10.275Z,100387.88
2023-01-19T05:37:37.443Z,100347.19
2023-01-19T05:40:05.249Z,100361.88
2023-01-19T05:42:33.039Z,100367.84
2023-01-19T05:45:00.016Z,100298.06
2023-01-19T05:47:30.629Z,100328.44
2023-01-19T05:49:58.904Z,100322.84
2023-01-19T05:52:29.901Z,100402.84
2023-01-19T05:55:03.094Z,100403.06
2023-01-19T05:57:33.452Z,100371.84
2023-01-19T06:00:00.640Z,100335.66
2023-01-19T06:02:30.549Z,100337.28
2023-01-19T06:04:57.703Z,100342.78
2023-01-19T06:07:29.144Z,100417.81
2023-01-19T06:09:56.494Z,100401.22
2023-01-19T06:12:23.779Z,100378.00
2023-01-19T06:14:51.600Z,100395.78
2023-01-19T06:17:18.754Z,100355.75
2023-01-19T06:19:45.960Z,100349.03
2023-01-19T06:22:13.381Z,100396.69
2023-01-19T06:24:40.261Z,100349.47
2023-01-19T06:27:07.454Z,100390.81
2023-01-19T06:29:34.372Z,100372.97
2023-01-19T06:32:01.916Z,100425.63
2023-01-19T06:34:29.664Z,100471.50
2023-01-19T06:36:57.648Z,100386.22
2023-01-19T06:39:27.929Z,100443.41
2023-01-19T06:41:58.129Z,100391.75
2023-01-19T06:44:26.199Z,100429.22
2023-01-19T06:47:14.561Z,100396.78
2023-01-19T06:49:42.129Z,100483.13
2023-01-19T06:52:11.608Z,100473.94
2023-01-19T06:54:38.661Z,100432.47
2023-01-19T06:57:06.326Z,100459.75
2023-01-19T06:59:33.791Z,100453.69
2023-01-19T07:02:26.472Z,100443.34
2023-01-19T07:04:55.524Z,100415.56
2023-01-19T07:07:22.461Z,100484.28
2023-01-19T07:09:49.632Z,100489.34
2023-01-19T07:12:22.728Z,100466.50
2023-01-19T07:14:50.174Z,100499.88
2023-01-19T07:17:17.840Z,100475.97
2023-01-19T07:19:44.979Z,100429.53
2023-01-19T07:22:12.363Z,100506.50
2023-01-19T07:24:39.504Z,100524.63
2023-01-19T07:27:06.703Z,100544.69
2023-01-19T07:29:33.784Z,100466.56
2023-01-19T07:32:01.363Z,100550.84
2023-01-19T07:34:28.272Z,100537.47
2023-01-19T07:36:57.045Z,100555.28
2023-01-19T07:39:24.461Z,100499.50
2023-01-19T07:41:51.502Z,100566.03
2023-01-19T07:44:19.096Z,100566.41
2023-01-19T07:46:46.012Z,100529.69
2023-01-19T07:49:14.027Z,100500.97
2023-01-19T07:51:41.136Z,100553.38
2023-01-19T07:54:09.300Z,100523.56
2023-01-19T07:56:36.196Z,100506.59
2023-01-19T07:59:03.450Z,100534.28
2023-01-19T08:01:31.655Z,100550.16
2023-01-19T08:03:58.948Z,100543.41
2023-01-19T08:06:36.402Z,100580.09
2023-01-19T08:09:05.768Z,100505.13
2023-01-19T08:11:33.730Z,100519.06
2023-01-19T08:14:01.329Z,100537.13
2023-01-19T08:16:29.221Z,100580.09
2023-01-19T08:18:56.361Z,100616.22
2023-01-19T08:21:23.097Z,100573.72
2023-01-19T08:23:57.680Z,100581.44
2023-01-19T08:26:31.688Z,100542.13
2023-01-19T08:29:01.731Z,100593.19
2023-01-19T08:31:28.979Z,100628.03
2023-01-19T08:33:55.750Z,100587.91
2023-01-19T08:36:23.031Z,100605.13
2023-01-19T08:38:51.489Z,100554.91
2023-01-19T08:41:18.410Z,100594.78
2023-01-19T08:43:45.664Z,100596.91
2023-01-19T08:46:12.680Z,100575.66
2023-01-19T08:48:40.168Z,100657.75
2023-01-19T08:51:07.215Z,100589.53
2023-01-19T08:53:34.873Z,100626.28
2023-01-19T08:56:02.404Z,100640.84
2023-01-19T08:58:29.553Z,100644.59
2023-01-19T09:00:56.383Z,100617.56
2023-01-19T09:03:28.316Z,100605.13
2023-01-19T09:05:55.534Z,100587.78
2023-01-19T09:08:22.701Z,100598.81
2023-01-19T09:10:54.236Z,100587.59
2023-01-19T09:13:21.692Z,100672.66
2023-01-19T09:15:49.033Z,100641.63
2023-01-19T09:18:25.017Z,100626.09
2023-01-19T09:20:53.787Z,100653.75
2023-01-19T09:23:22.532Z,100617.88
2023-01-19T09:25:56.016Z,100606.16
2023-01-19T09:28:24.918Z,100659.13
2023-01-19T09:30:52.303Z,100653.50
2023-01-19T09:33:20.681Z,100670.53
2023-01-19T09:35:49.543Z,100635.59
2023-01-19T09:38:18.115Z,100639.97
2023-01-19T09:40:50.211Z,100696.84
2023-01-19T09:43:34.026Z,100692.31
2023-01-19T09:46:24.689Z,100605.06
2023-01-19T09:48:54.300Z,100615.03
2023-01-19T09:51:31.771Z,100649.72
2023-01-19T09:54:17.524Z,100672.91
2023-01-19T09:56:47.305Z,100661.16
2023-01-19T09:59:30.229Z,100645.34
2023-01-19T10:02:39.327Z,100645.28
2023-01-19T10:05:28.790Z,100668.06
2023-01-19T10:08:03.921Z,100711.00
2023-01-19T10:10:37.786Z,100691.41
2023-01-19T10:13:30.928Z,100724.72
2023-01-19T10:16:20.894Z,100734.88
2023-01-19T10:18:52.615Z,100676.72
2023-01-19T10:21:37.393Z,100710.94
2023-01-19T10:24:16.498Z,100655.47
2023-01-19T10:26:48.839Z,100703.00
2023-01-19T10:29:36.923Z,100718.84
2023-01-19T10:32:35.779Z,100709.75
2023-01-19T10:35:22.260Z,100691.44
2023-01-19T10:37:51.716Z,100710.34
2023-01-19T10:40:48.053Z,100706.84
2023-01-19T10:43:47.362Z,100722.34
2023-01-19T10:46:38.732Z,100703.31
2023-01-19T10:49:06.642Z,100722.28
2023-01-19T10:51:39.029Z,100671.78
2023-01-19T10:54:13.719Z,100645.63
2023-01-19T10:56:41.086Z,100722.69
2023-01-19T10:59:33.530Z,100695.03
2023-01-19T11:02:29.791Z,100713.34
2023-01-19T11:05:24.734Z,100687.56
2023-01-19T11:07:53.447Z,100645.47
2023-01-19T11:10:29.808Z,100683.69
2023-01-19T11:13:03.211Z,100654.25
2023-01-19T11:15:52.530Z,100731.06
2023-01-19T11:18:41.149Z,100716.50
2023-01-19T11:21:28.969Z,100737.78
2023-01-19T11:24:02.072Z,100683.06
2023-01-19T11:26:50.191Z,100686.53
2023-01-19T11:29:24.671Z,100665.44
2023-01-19T11:31:59.152Z,100717.97
2023-01-19T11:34:39.177Z,100669.00
2023-01-19T11:37:36.041Z,100731.88
2023-01-19T11:40:14.422Z,100707.38
2023-01-19T11:42:44.087Z,100681.13
2023-01-19T11:45:20.369Z,100651.09
2023-01-19T11:47:57.405Z,100705.16
2023-01-19T11:50:42.906Z,100655.06
2023-01-19T11:53:34.187Z,100710.91
2023-01-19T11:56:11.299Z,100649.44
2023-01-19T11:58:45.821Z,100676.44
2023-01-19T12:01:40.657Z,100741.50
2023-01-19T12:04:17.400Z,100709.75
2023-01-19T12:06:51.207Z,100725.03
2023-01-19T12:09:21.498Z,100745.16
2023-01-19T12:11:58.703Z,100716.13
2023-01-19T12:14:35.423Z,100671.78
2023-01-19T12:17:08.964Z,100653.91
2023-01-19T12:19:50.689Z,100719.00
2023-01-19T12:22:19.912Z,100687.72
2023-01-19T12:24:55.746Z,100685.28
2023-01-19T12:27:32.002Z,100747.28
2023-01-19T12:29:59.859Z,100748.97
2023-01-19T12:32:35.972Z,100715.47
2023-01-19T12:35:08.565Z,100743.91
2023-01-19T12:37:41.719Z,100674.81
2023-01-19T12:40:35.810Z,100750.75
2023-01-19T12:43:06.657Z,100749.97
2023-01-19T12:45:40.215Z,100709.94
2023-01-19T12:48:26.062Z,100700.56
2023-01-19T12:50:53.805Z,100726.81
2023-01-19T12:53:23.042Z,100744.66
2023-01-19T12:56:01.343Z,100675.72
2023-01-19T12:58:29.479Z,100678.69
2023-01-19T13:01:17.113Z,100747.59
2023-01-19T13:03:57.959Z,100750.41
2023-01-19T13:06:49.828Z,100754.59
2023-01-19T13:09:39.592Z,100700.19
2023-01-19T13:12:15.683Z,100746.38
2023-01-19T13:14:43.627Z,100678.59
2023-01-19T13:17:36.795Z,100742.00
2023-01-19T13:20:06.882Z,100738.00
2023-01-19T13:22:51.012Z,100667.56
2023-01-19T13:25:31.487Z,100689.78
2023-01-19T13:28:01.419Z,100676.09
2023-01-19T13:30:30.540Z,100708.56
2023-01-19T13:33:21.657Z,100754.59
2023-01-19T13:35:54.389Z,100719.44
2023-01-19T13:38:22.979Z,100740.63
2023-01-19T13:40:50.622Z,100717.94
2023-01-19T13:43:36.826Z,100726.22
2023-01-19T13:46:04.327Z,100712.63
2023-01-19T13:48:32.648Z,100705.81
2023-01-19T13:51:05.806Z,100773.06
2023-01-19T13:53:33.357Z,100684.81
2023-01-19T13:56:17.199Z,100722.69
2023-01-19T13:58:57.144Z,100705.34
2023-01-19T14:01:24.673Z,100686.66
2023-01-19T14:03:52.887Z,100771.91
2023-01-19T14:06:32.292Z,100703.31
2023-01-19T14:09:08.213Z,100763.41
2023-01-19T14:11:35.613Z,100745.63
2023-01-19T14:14:03.171Z,100782.44
2023-01-19T14:16:30.338Z,100747.47
2023-01-19T14:19:04.528Z,100788.75
2023-01-19T14:21:39.786Z,100781.13
2023-01-19T14:24:11.325Z,100733.69
2023-01-19T14:26:38.415Z,100798.25
2023-01-19T14:29:24.375Z,100728.44
2023-01-19T14:32:04.287Z,100744.47
2023-01-19T14:34:36.556Z,100799.31
2023-01-19T14:37:05.719Z,100768.47
2023-01-19T14:39:35.977Z,100724.31
2023-01-19T14:42:07.126Z,100734.59
2023-01-19T14:44:41.387Z,100811.66
2023-01-19T14:47:25.757Z,100765.84
2023-01-19T14:49:54.967Z,100792.44
2023-01-19T14:52:27.593Z,100824.47
2023-01-19T14:54:57.463Z,100758.81
2023-01-19T14:57:24.560Z,100796.72
2023-01-19T14:59:52.434Z,100795.03
2023-01-19T15:02:19.732Z,100821.63
2023-01-19T15:04:48.249Z,100733.81
2023-01-19T15:07:19.967Z,100830.16
2023-01-19T15:09:48.130Z,100793.38
2023-01-19T15:12:18.454Z,100773.38
2023-01-19T15:14:46.340Z,100807.88
2023-01-19T15:17:25.660Z,100754.47
2023-01-19T15:19:56.078Z,100829.22
2023-01-19T15:22:26.902Z,100794.66
2023-01-19T15:24:57.773Z,100774.22
2023-01-19T15:27:24.646Z,100762.16
2023-01-19T15:29:51.567Z,100795.63
2023-01-19T15:32:18.535Z,100801.22
2023-01-19T15:34:45.553Z,100826.03
2023-01-19T15:37:12.447Z,100777.69
2023-01-19T15:39:39.975Z,100816.41
2023-01-19T15:42:13.626Z,100837.81
2023-01-19T15:44:40.365Z,100832.00
2023-01-19T15:47:07.152Z,100809.19
2023-01-19T15:49:33.987Z,100812.50
2023-01-19T15:52:01.201Z,100857.06
2023-01-19T15:54:27.938Z,100824.34
2023-01-19T15:56:55.107Z,100785.16
2023-01-19T15:59:23.870Z,100792.16
2023-01-19T16:01:51.160Z,100795.00
2023-01-19T16:04:18.245Z,100801.84
2023-01-19T16:06:45.405Z,100838.47
2023-01-19T16:09:16.942Z,100883.88
2023-01-19T16:11:44.616Z,100857.63
2023-01-19T16:14:11.785Z,100891.28
2023-01-19T16:16:38.807Z,100793.91
2023-01-19T16:19:05.576Z,100848.38
2023-01-19T16:21:32.458Z,100839.13
2023-01-19T16:23:59.332Z,100823.19
2023-01-19T16:26:32.634Z,100853.69
2023-01-19T16:29:09.993Z,100853.63
2023-01-19T16:31:42.455Z,100908.84
2023-01-19T16:34:10.221Z,100880.63
2023-01-19T16:36:40.797Z,100856.78
2023-01-19T16:39:13.042Z,100882.66
2023-01-19T16:41:40.482Z,100860.69
2023-01-19T16:44:08.596Z,100873.66
2023-01-19T16:46:41.112Z,100903.75
2023-01-19T16:49:16.033Z,100859.84
2023-01-19T16:51:43.583Z,100873.81
2023-01-19T16:54:19.738Z,100900.50
2023-01-19T16:56:49.055Z,100850.94
2023-01-19T16:59:17.795Z,100897.38
2023-01-19T17:01:46.616Z,100923.31
2023-01-19T17:04:14.460Z,100906.53
2023-01-19T17:06:41.689Z,100931.53
2023-01-19T17:09:09.659Z,100893.38
2023-01-19T17:11:37.299Z,100907.97
2023-01-19T17:14:10.872Z,100903.13
2023-01-19T17:16:37.777Z,100863.78
2023-01-19T17:19:07.612Z,100893.75
2023-01-19T17:21:35.777Z,100884.72
2023-01-19T17:24:02.764Z,100893.47
2023-01-19T17:26:31.310Z,100907.34
2023-01-19T17:29:01.136Z,100951.78
2023-01-19T17:31:28.715Z,100933.09
2023-01-19T17:33:56.067Z,100923.16
2023-01-19T17:36:25.488Z,100917.16
2023-01-19T17:38:54.144Z,100894.16
2023-01-19T17:41:28.474Z,100958.44
2023-01-19T17:43:56.112Z,100879.97
2023-01-19T17:46:26.183Z,100946.09
2023-01-19T17:49:00.736Z,100926.25
2023-01-19T17:51:29.346Z,100928.09
2023-01-19T17:53:57.084Z,100970.09
2023-01-19T17:56:30.939Z,100961.28
2023-01-19T17:58:58.921Z,100896.47
2023-01-19T18:01:28.286Z,100938.16
2023-01-19T18:03:56.224Z,100982.44
2023-01-19T18:06:23.614Z,100889.00
2023-01-19T18:08:51.536Z,100895.50
2023-01-19T18:11:20.944Z,100899.38
2023-01-19T18:13:49.648Z,100883.53
2023-01-19T18:16:28.093Z,100948.78
2023-01-19T18:18:58.497Z,100954.66
2023-01-19T18:21:28.334Z,100945.13
2023-01-19T18:24:05.417Z,100913.75
2023-01-19T18:26:34.768Z,100945.38
2023-01-19T18:29:03.355Z,100934.63
2023-01-19T18:31:31.457Z,101020.94
2023-01-19T18:34:00.458Z,101025.81
2023-01-19T18:36:27.596Z,100951.69
2023-01-19T18:38:54.686Z,100953.31
2023-01-19T18:41:22.177Z,101001.09
2023-01-19T18:43:49.627Z,101025.56
2023-01-19T18:46:16.877Z,100974.31
2023-01-19T18:48:44.406Z,100986.47
2023-01-19T18:51:14.154Z,101044.16
2023-01-19T18:53:41.798Z,101069.63
2023-01-19T18:56:12.674Z,101039.28
2023-01-19T18:58:41.541Z,101000.25
2023-01-19T19:01:25.510Z,101081.66
2023-01-19T19:03:55.758Z,101050.69
2023-01-19T19:06:24.135Z,101023.19
2023-01-19T19:08:52.105Z,100988.00
2023-01-19T19:11:23.142Z,101024.63
2023-01-19T19:13:56.602Z,101014.22
2023-01-19T19:16:24.349Z,100971.69
2023-01-19T19:18:53.899Z,100993.81
2023-01-19T19:21:22.512Z,101027.47
2023-01-19T19:23:50.407Z,101072.72
2023-01-19T19:26:20.720Z,100997.38
2023-01-19T19:28:48.189Z,101019.81
2023-01-19T19:31:21.263Z,100995.78
2023-01-19T19:33:49.704Z,101044.50
2023-01-19T19:36:24.531Z,101004.16
2023-01-19T19:38:51.946Z,101030.69
2023-01-19T19:41:24.784Z,101058.09
2023-01-19T19:43:51.732Z,100986.75
2023-01-19T19:46:21.611Z,101000.66
2023-01-19T19:48:49.392Z,101089.25
2023-01-19T19:51:25.731Z,101018.00
2023-01-19T19:53:55.982Z,101045.66
2023-01-19T19:56:24.777Z,101005.47
2023-01-19T19:58:53.848Z,101057.75
2023-01-19T20:01:26.078Z,101040.72
2023-01-19T20:03:54.251Z,101014.38
2023-01-19T20:06:25.384Z,101071.88
2023-01-19T20:08:54.893Z,101032.28
2023-01-19T20:11:25.986Z,101071.06
2023-01-19T20:13:53.177Z,101095.19
2023-01-19T20:16:23.712Z,101065.09
2023-01-19T20:18:54.179Z,101114.22
2023-01-19T20:21:24.137Z,101118.63
2023-01-19T20:23:53.115Z,101020.69
2023-01-19T20:26:25.301Z,101056.78
2023-01-19T20:28:53.140Z,101074.81
2023-01-19T20:31:23.741Z,101123.00
2023-01-19T20:33:55.790Z,101110.81
2023-01-19T20:36:24.712Z,101029.34
2023-01-19T20:38:52.460Z,101116.63
2023-01-19T20:41:20.512Z,101081.59
2023-01-19T20:43:47.929Z,101128.94
2023-01-19T20:46:15.541Z,101079.97
2023-01-19T20:48:42.840Z,101080.97
2023-01-19T20:51:12.921Z,101069.03
2023-01-19T20:53:41.394Z,101093.06
2023-01-19T20:56:11.938Z,101126.69
2023-01-19T20:58:39.343Z,101060.72
2023-01-19T21:01:29.903Z,101100.81
2023-01-19T21:03:58.091Z,101056.50
2023-01-19T21:06:25.532Z,101055.91
2023-01-19T21:08:53.056Z,101099.66
2023-01-19T21:11:21.533Z,101062.72
2023-01-19T21:13:49.104Z,101048.88
2023-01-19T21:16:16.407Z,101090.31
2023-01-19T21:18:44.730Z,101082.56
2023-01-19T21:21:28.522Z,101156.56
2023-01-19T21:23:59.570Z,101073.25
2023-01-19T21:26:26.853Z,101127.41
2023-01-19T21:28:53.922Z,101078.47
2023-01-19T21:31:27.069Z,101149.75
2023-01-19T21:33:54.740Z,101087.16
2023-01-19T21:36:23.174Z,101146.50
2023-01-19T21:38:53.051Z,101098.41
2023-01-19T21:41:20.621Z,101102.81
2023-01-19T21:43:47.805Z,101137.06
2023-01-19T21:46:30.530Z,101118.25
2023-01-19T21:48:58.658Z,101113.25
2023-01-19T21:51:27.543Z,101144.91
2023-01-19T21:53:59.881Z,101112.31
2023-01-19T21:56:35.444Z,101115.75
2023-01-19T21:59:06.269Z,101208.69
2023-01-19T22:01:35.387Z,101199.16
2023-01-19T22:04:02.676Z,101200.97
2023-01-19T22:06:29.607Z,101118.38
2023-01-19T22:08:58.073Z,101164.84
2023-01-19T22:11:26.138Z,101140.78
2023-01-19T22:13:54.011Z,101135.59
2023-01-19T22:16:22.863Z,101146.00
2023-01-19T22:18:54.057Z,101229.28
2023-01-19T22:21:23.754Z,101198.41
2023-01-19T22:23:52.652Z,101218.91
2023-01-19T22:26:20.219Z,101183.72
2023-01-19T22:28:47.365Z,101242.25
2023-01-19T22:31:18.444Z,101156.31
2023-01-19T22:33:46.987Z,101142.50
2023-01-19T22:36:22.435Z,101171.66
2023-01-19T22:38:57.758Z,101204.25
2023-01-19T22:41:27.511Z,101158.94
2023-01-19T22:43:57.304Z,101225.97
2023-01-19T22:46:26.841Z,101162.38
2023-01-19T22:48:54.524Z,101139.94
2023-01-19T22:51:26.469Z,101204.47
2023-01-19T22:53:54.081Z,101192.72
2023-01-19T22:56:25.888Z,101240.91
2023-01-19T22:58:53.811Z,101153.25
2023-01-19T23:01:30.308Z,101211.69
2023-01-19T23:03:57.330Z,101196.34
2023-01-19T23:06:28.580Z,101177.38
2023-01-19T23:08:57.242Z,101185.97
2023-01-19T23:11:26.142Z,101236.72
2023-01-19T23:13:53.731Z,101222.16
2023-01-19T23:16:20.962Z,101233.28
2023-01-19T23:18:48.201Z,101189.56
2023-01-19T23:21:18.780Z,101239.38
2023-01-19T23:23:46.173Z,101141.38
2023-01-19T23:26:19.383Z,101180.22
2023-01-19T23:28:47.133Z,101217.34
2023-01-19T23:31:22.476Z,101144.19
2023-01-19T23:33:52.556Z,101153.59
2023-01-19T23:36:22.554Z,101208.72
2023-01-19T23:38:59.144Z,101170.03
2023-01-19T23:41:29.667Z,101176.19
2023-01-19T23:43:57.273Z,101217.59
2023-01-19T23:46:24.447Z,101173.63
2023-01-19T23:48:51.538Z,101197.91
2023-01-19T23:51:24.286Z,101166.06
2023-01-19T23:53:51.632Z,101263.16
2023-01-19T23:56:25.483Z,101268.38
2023-01-19T23:58:58.927Z,101219.25
